createdAt,value
2019-02-11T00:00:03.729Z,1001.43
2019-02-11T00:01:03.799Z,1001.52
2019-02-11T00:02:03.712Z,1001.59
2019-02-11T00:03:03.697Z,1001.59
2019-02-11T00:04:03.825Z,1001.66
2019-02-11T00:05:03.673Z,1001.59
2019-02-11T00:06:03.656Z,1001.62
2019-02-11T00:07:03.661Z,1001.68
2019-02-11T00:08:03.648Z,1001.68
2019-02-11T00:09:03.631Z,1001.76
2019-02-11T00:10:03.633Z,1001.79
2019-02-11T00:11:03.668Z,1001.73
2019-02-11T00:12:03.629Z,1001.78
2019-02-11T00:13:10.414Z,1001.82
2019-02-11T00:14:04.564Z,1001.84
2019-02-11T00:15:03.560Z,1001.85
2019-02-11T00:16:03.547Z,1001.90
2019-02-11T00:17:03.535Z,1001.90
2019-02-11T00:18:03.553Z,1001.97
2019-02-11T00:19:03.513Z,1001.95
2019-02-11T00:20:03.523Z,1001.98
2019-02-11T00:21:03.495Z,1001.98
2019-02-11T00:22:03.508Z,1002.05
2019-02-11T00:23:03.610Z,1002.08
2019-02-11T00:24:03.468Z,1002.09
2019-02-11T00:25:03.451Z,1002.08
2019-02-11T00:26:03.440Z,1002.21
2019-02-11T00:27:03.430Z,1002.11
2019-02-11T00:28:03.415Z,1002.21
2019-02-11T00:29:03.456Z,1002.25
2019-02-11T00:30:03.397Z,1002.33
2019-02-11T00:31:03.399Z,1002.29
2019-02-11T00:32:03.370Z,1002.30
2019-02-11T00:33:03.389Z,1002.28
2019-02-11T00:34:03.377Z,1002.33
2019-02-11T00:35:03.349Z,1002.35
2019-02-11T00:36:03.324Z,1002.35
2019-02-11T00:37:03.320Z,1002.38
2019-02-11T00:38:04.152Z,1002.29
2019-02-11T00:39:03.318Z,1002.40
2019-02-11T00:40:03.333Z,1002.42
2019-02-11T00:41:03.273Z,1002.44
2019-02-11T00:42:03.271Z,1002.56
2019-02-11T00:43:03.261Z,1002.48
2019-02-11T00:44:03.251Z,1002.51
2019-02-11T00:45:03.255Z,1002.59
2019-02-11T00:46:03.223Z,1002.57
2019-02-11T00:47:04.156Z,1002.53
2019-02-11T00:48:03.208Z,1002.50
2019-02-11T00:49:03.181Z,1002.60
2019-02-11T00:50:03.175Z,1002.61
2019-02-11T00:51:03.181Z,1002.62
2019-02-11T00:52:03.153Z,1002.68
2019-02-11T00:53:03.161Z,1002.72
2019-02-11T00:54:03.127Z,1002.73
2019-02-11T00:55:03.120Z,1002.77
2019-02-11T00:56:03.113Z,1002.77
2019-02-11T00:57:03.129Z,1002.85
2019-02-11T00:58:03.083Z,1002.84
2019-02-11T00:59:03.089Z,1002.87
2019-02-11T01:00:03.059Z,1002.89
2019-02-11T01:01:03.073Z,1002.86
2019-02-11T01:02:03.056Z,1002.94
2019-02-11T01:03:03.032Z,1002.95
2019-02-11T01:04:03.016Z,1002.98
2019-02-11T01:05:03.013Z,1003.00
2019-02-11T01:06:03.028Z,1003.05
2019-02-11T01:07:02.986Z,1003.04
2019-02-11T01:08:02.997Z,1003.03
2019-02-11T01:09:02.967Z,1003.02
2019-02-11T01:10:02.953Z,1003.08
2019-02-11T01:11:02.939Z,1003.11
2019-02-11T01:12:02.930Z,1003.08
2019-02-11T01:13:02.946Z,1003.18
2019-02-11T01:14:02.907Z,1003.16
2019-02-11T01:15:02.902Z,1003.21
2019-02-11T01:16:02.891Z,1003.26
2019-02-11T01:17:02.883Z,1003.32
2019-02-11T01:18:02.870Z,1003.35
2019-02-11T01:19:02.906Z,1003.42
2019-02-11T01:20:02.840Z,1003.38
2019-02-11T01:21:02.829Z,1003.40
2019-02-11T01:22:02.822Z,1003.41
2019-02-11T01:23:02.815Z,1003.51
2019-02-11T01:24:02.809Z,1003.50
2019-02-11T01:25:02.820Z,1003.46
2019-02-11T01:26:02.775Z,1003.51
2019-02-11T01:27:02.828Z,1003.54
2019-02-11T01:28:03.664Z,1003.53
2019-02-11T01:29:02.749Z,1003.57
2019-02-11T01:30:02.771Z,1003.55
2019-02-11T01:31:02.744Z,1003.62
2019-02-11T01:32:02.711Z,1003.62
2019-02-11T01:33:02.713Z,1003.68
2019-02-11T01:34:02.691Z,1003.64
2019-02-11T01:35:02.685Z,1003.73
2019-02-11T01:36:02.663Z,1003.76
2019-02-11T01:37:02.677Z,1003.81
2019-02-11T01:38:02.643Z,1003.78
2019-02-11T01:39:02.640Z,1003.80
2019-02-11T01:40:02.654Z,1003.81
2019-02-11T01:41:02.639Z,1003.84
2019-02-11T01:42:02.600Z,1003.79
2019-02-11T01:43:03.167Z,1003.88
2019-02-11T01:44:02.577Z,1003.89
2019-02-11T01:45:02.587Z,1003.94
2019-02-11T01:46:02.676Z,1003.90
2019-02-11T01:47:02.577Z,1003.86
2019-02-11T01:48:02.534Z,1003.90
2019-02-11T01:49:02.547Z,1003.94
2019-02-11T01:50:02.533Z,1003.87
2019-02-11T01:51:02.513Z,1003.97
2019-02-11T01:52:02.495Z,1003.97
2019-02-11T01:53:02.486Z,1004.06
2019-02-11T01:54:02.486Z,1004.00
2019-02-11T01:55:02.479Z,1004.08
2019-02-11T01:56:02.444Z,1004.05
2019-02-11T01:57:02.445Z,1004.07
2019-02-11T01:58:02.421Z,1004.10
2019-02-11T01:59:02.466Z,1004.06
2019-02-11T02:00:02.424Z,1004.09
2019-02-11T02:01:02.417Z,1004.14
2019-02-11T02:02:02.483Z,1004.15
2019-02-11T02:03:02.392Z,1004.09
2019-02-11T02:04:02.363Z,1004.08
2019-02-11T02:05:02.377Z,1004.16
2019-02-11T02:06:02.336Z,1004.15
2019-02-11T02:07:02.326Z,1004.17
2019-02-11T02:08:02.314Z,1004.22
2019-02-11T02:09:02.307Z,1004.30
2019-02-11T02:10:02.330Z,1004.26
2019-02-11T02:11:02.291Z,1004.05
2019-02-11T02:12:02.276Z,1004.19
2019-02-11T02:13:02.266Z,1004.17
2019-02-11T02:14:02.252Z,1004.23
2019-02-11T02:15:02.243Z,1004.31
2019-02-11T02:16:02.244Z,1004.35
2019-02-11T02:17:02.217Z,1004.35
2019-02-11T02:18:02.203Z,1004.26
2019-02-11T02:19:02.195Z,1004.23
2019-02-11T02:20:02.179Z,1004.28
2019-02-11T02:21:02.172Z,1004.33
2019-02-11T02:22:02.193Z,1004.40
2019-02-11T02:23:02.233Z,1004.40
2019-02-11T02:24:02.141Z,1004.42
2019-02-11T02:25:02.126Z,1004.52
2019-02-11T02:26:02.208Z,1004.49
2019-02-11T02:27:02.123Z,1004.55
2019-02-11T02:28:02.099Z,1004.55
2019-02-11T02:29:02.083Z,1004.59
2019-02-11T02:30:02.080Z,1004.53
2019-02-11T02:31:02.060Z,1004.60
2019-02-11T02:32:02.076Z,1004.60
2019-02-11T02:33:02.059Z,1004.64
2019-02-11T02:34:02.026Z,1004.65
2019-02-11T02:35:02.021Z,1004.72
2019-02-11T02:36:02.003Z,1004.73
2019-02-11T02:37:01.991Z,1004.74
2019-02-11T02:38:01.979Z,1004.78
2019-02-11T02:39:02.107Z,1004.78
2019-02-11T02:40:01.967Z,1004.88
2019-02-11T02:41:01.964Z,1004.81
2019-02-11T02:42:02.027Z,1004.91
2019-02-11T02:43:01.938Z,1004.92
2019-02-11T02:44:01.957Z,1004.92
2019-02-11T02:45:01.908Z,1004.98
2019-02-11T02:46:01.896Z,1004.98
2019-02-11T02:47:01.883Z,1005.07
2019-02-11T02:48:01.871Z,1005.03
2019-02-11T02:49:01.862Z,1005.06
2019-02-11T02:50:01.870Z,1005.09
2019-02-11T02:51:01.846Z,1005.00
2019-02-11T02:52:01.826Z,1005.08
2019-02-11T02:53:01.830Z,1005.17
2019-02-11T02:54:01.815Z,1005.13
2019-02-11T02:55:01.818Z,1005.12
2019-02-11T02:56:01.794Z,1005.19
2019-02-11T02:57:01.775Z,1005.19
2019-02-11T02:58:02.679Z,1005.13
2019-02-11T02:59:01.752Z,1005.17
2019-02-11T03:00:01.761Z,1005.22
2019-02-11T03:01:01.732Z,1005.22
2019-02-11T03:02:01.752Z,1005.34
2019-02-11T03:03:01.710Z,1005.26
2019-02-11T03:04:01.696Z,1005.22
2019-02-11T03:05:01.720Z,1005.39
2019-02-11T03:06:01.714Z,1005.33
2019-02-11T03:07:01.666Z,1005.30
2019-02-11T03:08:01.734Z,1005.34
2019-02-11T03:09:01.646Z,1005.43
2019-02-11T03:10:01.642Z,1005.40
2019-02-11T03:11:01.621Z,1005.39
2019-02-11T03:12:01.637Z,1005.49
2019-02-11T03:13:01.623Z,1005.56
2019-02-11T03:14:05.740Z,1005.55
2019-02-11T03:15:01.584Z,1005.55
2019-02-11T03:16:01.568Z,1005.59
2019-02-11T03:17:01.559Z,1005.67
2019-02-11T03:18:01.563Z,1005.66
2019-02-11T03:19:01.617Z,1005.61
2019-02-11T03:20:01.519Z,1005.64
2019-02-11T03:21:01.504Z,1005.68
2019-02-11T03:22:01.515Z,1005.63
2019-02-11T03:23:01.509Z,1005.68
2019-02-11T03:24:01.508Z,1005.69
2019-02-11T03:25:01.552Z,1005.77
2019-02-11T03:26:01.449Z,1005.73
2019-02-11T03:27:01.436Z,1005.89
2019-02-11T03:28:01.430Z,1005.79
2019-02-11T03:29:01.438Z,1005.76
2019-02-11T03:30:01.427Z,1005.75
2019-02-11T03:31:01.407Z,1005.84
2019-02-11T03:32:01.399Z,1005.82
2019-02-11T03:33:01.375Z,1005.86
2019-02-11T03:34:01.371Z,1005.95
2019-02-11T03:35:01.418Z,1005.92
2019-02-11T03:36:01.342Z,1005.86
2019-02-11T03:37:01.328Z,1005.91
2019-02-11T03:38:01.430Z,1005.94
2019-02-11T03:39:01.308Z,1005.94
2019-02-11T03:40:01.304Z,1006.01
2019-02-11T03:41:01.309Z,1006.01
2019-02-11T03:42:01.275Z,1005.99
2019-02-11T03:43:01.265Z,1006.05
2019-02-11T03:44:01.259Z,1006.09
2019-02-11T03:45:01.261Z,1006.10
2019-02-11T03:46:01.246Z,1006.10
2019-02-11T03:47:01.230Z,1006.13
2019-02-11T03:48:01.226Z,1006.09
2019-02-11T03:49:01.201Z,1006.24
2019-02-11T03:50:01.189Z,1006.25
2019-02-11T03:51:01.208Z,1006.32
2019-02-11T03:52:01.162Z,1006.33
2019-02-11T03:53:01.149Z,1006.31
2019-02-11T03:54:01.147Z,1006.43
2019-02-11T03:55:01.127Z,1006.38
2019-02-11T03:56:01.143Z,1006.41
2019-02-11T03:57:01.142Z,1006.38
2019-02-11T03:58:01.108Z,1006.44
2019-02-11T03:59:01.153Z,1006.40
2019-02-11T04:00:01.106Z,1006.45
2019-02-11T04:01:01.066Z,1006.48
2019-02-11T04:02:01.079Z,1006.56
2019-02-11T04:03:01.066Z,1006.47
2019-02-11T04:04:01.052Z,1006.49
2019-02-11T04:05:01.037Z,1006.50
2019-02-11T04:06:01.029Z,1006.49
2019-02-11T04:07:01.004Z,1006.62
2019-02-11T04:08:01.029Z,1006.55
2019-02-11T04:09:00.984Z,1006.56
2019-02-11T04:10:01.022Z,1006.58
2019-02-11T04:11:00.953Z,1006.67
2019-02-11T04:12:00.943Z,1006.68
2019-02-11T04:13:00.933Z,1006.75
2019-02-11T04:14:00.953Z,1006.70
2019-02-11T04:15:00.908Z,1006.74
2019-02-11T04:16:00.913Z,1006.77
2019-02-11T04:17:00.888Z,1006.78
2019-02-11T04:18:01.685Z,1006.88
2019-02-11T04:19:00.895Z,1006.88
2019-02-11T04:20:00.857Z,1006.90
2019-02-11T04:21:01.689Z,1006.88
2019-02-11T04:22:00.855Z,1006.94
2019-02-11T04:23:00.819Z,1006.95
2019-02-11T04:24:00.819Z,1006.98
2019-02-11T04:25:00.825Z,1007.00
2019-02-11T04:26:00.790Z,1007.08
2019-02-11T04:27:00.804Z,1007.09
2019-02-11T04:28:00.797Z,1007.08
2019-02-11T04:29:00.759Z,1007.13
2019-02-11T04:30:00.747Z,1007.16
2019-02-11T04:31:00.746Z,1007.31
2019-02-11T04:32:00.723Z,1007.18
2019-02-11T04:33:00.707Z,1007.19
2019-02-11T04:34:00.720Z,1007.21
2019-02-11T04:35:00.686Z,1007.35
2019-02-11T04:36:00.685Z,1007.19
2019-02-11T04:37:00.670Z,1007.25
2019-02-11T04:38:00.658Z,1007.29
2019-02-11T04:39:00.665Z,1007.37
2019-02-11T04:40:00.638Z,1007.39
2019-02-11T04:41:00.620Z,1007.44
2019-02-11T04:42:00.611Z,1007.51
2019-02-11T04:43:00.600Z,1007.50
2019-02-11T04:44:00.586Z,1007.40
2019-02-11T04:45:00.616Z,1007.35
2019-02-11T04:46:00.568Z,1007.38
2019-02-11T04:47:00.597Z,1007.33
2019-02-11T04:48:00.545Z,1007.36
2019-02-11T04:49:00.545Z,1007.39
2019-02-11T04:50:00.524Z,1007.41
2019-02-11T04:51:00.539Z,1007.43
2019-02-11T04:52:00.504Z,1007.51
2019-02-11T04:53:00.488Z,1007.60
2019-02-11T04:54:00.489Z,1007.59
2019-02-11T04:55:00.470Z,1007.60
2019-02-11T04:56:00.460Z,1007.68
2019-02-11T04:57:00.469Z,1007.66
2019-02-11T04:58:00.526Z,1007.62
2019-02-11T04:59:00.419Z,1007.64
2019-02-11T05:00:00.461Z,1007.68
2019-02-11T05:01:00.404Z,1007.69
2019-02-11T05:02:00.409Z,1007.69
2019-02-11T05:03:00.378Z,1007.70
2019-02-11T05:04:00.382Z,1007.78
2019-02-11T05:05:00.351Z,1007.79
2019-02-11T05:06:00.357Z,1007.77
2019-02-11T05:07:00.334Z,1007.75
2019-02-11T05:08:00.348Z,1007.89
2019-02-11T05:09:00.343Z,1007.80
2019-02-11T05:10:00.301Z,1007.87
2019-02-11T05:11:00.290Z,1007.85
2019-02-11T05:12:00.312Z,1007.85
2019-02-11T05:13:00.267Z,1007.92
2019-02-11T05:14:00.251Z,1007.85
2019-02-11T05:15:00.300Z,1007.91
2019-02-11T05:16:00.236Z,1007.90
2019-02-11T05:17:00.307Z,1007.88
2019-02-11T05:18:00.223Z,1007.86
2019-02-11T05:19:00.236Z,1007.87
2019-02-11T05:20:00.322Z,1007.86
2019-02-11T05:21:00.213Z,1007.89
2019-02-11T05:22:00.168Z,1007.90
2019-02-11T05:23:00.155Z,1007.91
2019-02-11T05:24:00.176Z,1007.88
2019-02-11T05:25:00.363Z,1007.90
2019-02-11T05:26:00.142Z,1007.96
2019-02-11T05:27:00.119Z,1007.96
2019-02-11T05:28:00.695Z,1007.97
2019-02-11T05:29:00.095Z,1008.02
2019-02-11T05:30:00.267Z,1008.05
2019-02-11T05:31:00.127Z,1008.14
2019-02-11T05:32:00.062Z,1008.08
2019-02-11T05:33:00.059Z,1008.14
2019-02-11T05:34:00.708Z,1008.08
2019-02-11T05:35:00.033Z,1008.12
2019-02-11T05:36:00.043Z,1008.17
2019-02-11T05:37:00.021Z,1008.09
2019-02-11T05:37:59.992Z,1008.16
2019-02-11T05:38:59.977Z,1008.13
2019-02-11T05:39:59.972Z,1008.12
2019-02-11T05:40:59.957Z,1008.12
2019-02-11T05:41:59.978Z,1008.18
2019-02-11T05:42:59.932Z,1008.14
2019-02-11T05:43:59.924Z,1008.23
2019-02-11T05:44:59.915Z,1008.24
2019-02-11T05:45:59.903Z,1008.24
2019-02-11T05:46:59.997Z,1008.22
2019-02-11T05:47:59.919Z,1008.21
2019-02-11T05:48:59.880Z,1008.33
2019-02-11T05:49:59.913Z,1008.26
2019-02-11T05:50:59.848Z,1008.29
2019-02-11T05:51:59.861Z,1008.33
2019-02-11T05:52:59.829Z,1008.39
2019-02-11T05:53:59.821Z,1008.42
2019-02-11T05:54:59.829Z,1008.41
2019-02-11T05:55:59.797Z,1008.41
2019-02-11T05:56:59.818Z,1008.49
2019-02-11T05:57:59.779Z,1008.46
2019-02-11T05:58:59.761Z,1008.56
2019-02-11T05:59:59.784Z,1008.55
2019-02-11T06:00:59.744Z,1008.51
2019-02-11T06:01:59.729Z,1008.60
2019-02-11T06:02:59.802Z,1008.66
2019-02-11T06:03:59.713Z,1008.70
2019-02-11T06:04:59.698Z,1008.61
2019-02-11T06:05:59.703Z,1008.65
2019-02-11T06:06:59.682Z,1008.67
2019-02-11T06:07:59.849Z,1008.69
2019-02-11T06:08:59.687Z,1008.75
2019-02-11T06:09:59.652Z,1008.73
2019-02-11T06:10:59.674Z,1008.81
2019-02-11T06:11:59.622Z,1008.94
2019-02-11T06:12:59.619Z,1008.91
2019-02-11T06:13:59.626Z,1008.96
2019-02-11T06:15:04.409Z,1008.94
2019-02-11T06:16:00.669Z,1008.99
2019-02-11T06:16:59.566Z,1008.98
2019-02-11T06:17:59.558Z,1009.00
2019-02-11T06:18:59.545Z,1009.14
2019-02-11T06:19:59.557Z,1009.16
2019-02-11T06:20:59.518Z,1009.15
2019-02-11T06:21:59.502Z,1009.18
2019-02-11T06:22:59.536Z,1009.27
2019-02-11T06:24:00.204Z,1009.20
2019-02-11T06:24:59.469Z,1009.33
2019-02-11T06:25:59.480Z,1009.34
2019-02-11T06:26:59.467Z,1009.29
2019-02-11T06:27:59.443Z,1009.29
2019-02-11T06:28:59.428Z,1009.36
2019-02-11T06:29:59.409Z,1009.37
2019-02-11T06:30:59.423Z,1009.37
2019-02-11T06:31:59.397Z,1009.37
2019-02-11T06:32:59.392Z,1009.42
2019-02-11T06:33:59.383Z,1009.41
2019-02-11T06:34:59.356Z,1009.50
2019-02-11T06:35:59.372Z,1009.50
2019-02-11T06:36:59.344Z,1009.56
2019-02-11T06:37:59.347Z,1009.70
2019-02-11T06:38:59.322Z,1009.55
2019-02-11T06:39:59.322Z,1009.66
2019-02-11T06:40:59.320Z,1009.67
2019-02-11T06:41:59.280Z,1009.75
2019-02-11T06:42:59.309Z,1009.75
2019-02-11T06:43:59.291Z,1009.78
2019-02-11T06:44:59.274Z,1009.84
2019-02-11T06:45:59.371Z,1009.86
2019-02-11T06:46:59.256Z,1009.93
2019-02-11T06:47:59.222Z,1009.91
2019-02-11T06:48:59.218Z,1009.91
2019-02-11T06:49:59.190Z,1009.99
2019-02-11T06:50:59.321Z,1009.95
2019-02-11T06:51:59.198Z,1010.10
2019-02-11T06:52:59.158Z,1010.01
2019-02-11T06:53:59.162Z,1010.10
2019-02-11T06:54:59.144Z,1010.08
2019-02-11T06:55:59.127Z,1010.06
2019-02-11T06:56:59.124Z,1010.13
2019-02-11T06:57:59.132Z,1010.10
2019-02-11T06:58:59.096Z,1010.14
2019-02-11T06:59:59.082Z,1010.22
2019-02-11T07:00:59.082Z,1010.26
2019-02-11T07:01:59.066Z,1010.31
2019-02-11T07:02:59.076Z,1010.35
2019-02-11T07:03:59.037Z,1010.35
2019-02-11T07:04:59.027Z,1010.44
2019-02-11T07:05:59.019Z,1010.38
2019-02-11T07:06:59.044Z,1010.37
2019-02-11T07:07:59.032Z,1010.37
2019-02-11T07:08:58.988Z,1010.43
2019-02-11T07:09:59.100Z,1010.42
2019-02-11T07:10:58.964Z,1010.50
2019-02-11T07:11:58.946Z,1010.50
2019-02-11T07:12:59.024Z,1010.53
2019-02-11T07:13:58.928Z,1010.51
2019-02-11T07:14:58.925Z,1010.62
2019-02-11T07:15:58.908Z,1010.53
2019-02-11T07:16:58.916Z,1010.59
2019-02-11T07:17:58.904Z,1010.69
2019-02-11T07:18:58.875Z,1010.63
2019-02-11T07:19:58.889Z,1010.65
2019-02-11T07:20:58.846Z,1010.67
2019-02-11T07:21:58.841Z,1010.67
2019-02-11T07:22:58.857Z,1010.68
2019-02-11T07:23:58.818Z,1010.74
2019-02-11T07:24:58.809Z,1010.71
2019-02-11T07:25:58.799Z,1010.73
2019-02-11T07:26:58.791Z,1010.87
2019-02-11T07:27:58.802Z,1010.80
2019-02-11T07:28:58.836Z,1010.83
2019-02-11T07:29:58.752Z,1010.85
2019-02-11T07:30:58.743Z,1010.92
2019-02-11T07:31:58.735Z,1010.87
2019-02-11T07:32:58.743Z,1010.89
2019-02-11T07:33:58.789Z,1010.83
2019-02-11T07:34:58.762Z,1010.93
2019-02-11T07:35:58.697Z,1010.90
2019-02-11T07:36:58.718Z,1011.04
2019-02-11T07:37:58.701Z,1010.96
2019-02-11T07:38:58.651Z,1010.94
2019-02-11T07:39:58.694Z,1010.97
2019-02-11T07:40:58.635Z,1010.93
2019-02-11T07:41:58.619Z,1010.93
2019-02-11T07:42:58.613Z,1010.99
2019-02-11T07:43:58.600Z,1010.93
2019-02-11T07:44:58.614Z,1010.98
2019-02-11T07:45:58.578Z,1011.05
2019-02-11T07:46:58.569Z,1011.06
2019-02-11T07:47:58.554Z,1011.12
2019-02-11T07:48:58.553Z,1011.18
2019-02-11T07:49:58.561Z,1011.26
2019-02-11T07:50:58.523Z,1011.19
2019-02-11T07:51:58.508Z,1011.25
2019-02-11T07:52:59.216Z,1011.31
2019-02-11T07:53:58.487Z,1011.26
2019-02-11T07:54:58.504Z,1011.23
2019-02-11T07:55:58.603Z,1011.27
2019-02-11T07:56:58.462Z,1011.33
2019-02-11T07:57:58.446Z,1011.29
2019-02-11T07:58:58.454Z,1011.31
2019-02-11T07:59:58.424Z,1011.35
2019-02-11T08:00:58.433Z,1011.32
2019-02-11T08:01:58.399Z,1011.41
2019-02-11T08:02:58.385Z,1011.38
2019-02-11T08:03:58.380Z,1011.39
2019-02-11T08:04:58.371Z,1011.45
2019-02-11T08:05:58.396Z,1011.39
2019-02-11T08:06:58.342Z,1011.43
2019-02-11T08:07:58.359Z,1011.44
2019-02-11T08:08:58.330Z,1011.42
2019-02-11T08:09:58.307Z,1011.50
2019-02-11T08:10:58.299Z,1011.54
2019-02-11T08:11:58.384Z,1011.58
2019-02-11T08:12:58.323Z,1011.53
2019-02-11T08:13:58.274Z,1011.58
2019-02-11T08:14:58.259Z,1011.55
2019-02-11T08:15:58.243Z,1011.67
2019-02-11T08:16:59.222Z,1011.71
2019-02-11T08:17:58.326Z,1011.67
2019-02-11T08:18:58.236Z,1011.71
2019-02-11T08:19:58.300Z,1011.72
2019-02-11T08:20:58.185Z,1011.73
2019-02-11T08:21:58.182Z,1011.69
2019-02-11T08:22:58.194Z,1011.70
2019-02-11T08:23:58.172Z,1011.70
2019-02-11T08:24:58.142Z,1011.71
2019-02-11T08:25:58.131Z,1011.77
2019-02-11T08:26:58.124Z,1011.78
2019-02-11T08:27:58.121Z,1011.82
2019-02-11T08:28:58.119Z,1011.74
2019-02-11T08:29:58.086Z,1011.72
2019-02-11T08:30:58.082Z,1011.92
2019-02-11T08:31:58.066Z,1011.88
2019-02-11T08:32:58.067Z,1011.90
2019-02-11T08:33:58.050Z,1012.04
2019-02-11T08:34:58.059Z,1012.03
2019-02-11T08:35:58.168Z,1011.96
2019-02-11T08:36:58.012Z,1012.04
2019-02-11T08:37:57.999Z,1012.02
2019-02-11T08:38:58.015Z,1012.17
2019-02-11T08:39:57.978Z,1012.13
2019-02-11T08:40:58.024Z,1012.15
2019-02-11T08:41:58.035Z,1012.09
2019-02-11T08:42:57.948Z,1012.11
2019-02-11T08:43:58.325Z,1012.17
2019-02-11T08:44:57.924Z,1012.19
2019-02-11T08:45:57.913Z,1012.24
2019-02-11T08:46:57.900Z,1012.29
2019-02-11T08:47:57.923Z,1012.35
2019-02-11T08:48:57.883Z,1012.38
2019-02-11T08:49:57.870Z,1012.41
2019-02-11T08:50:57.862Z,1012.37
2019-02-11T08:51:57.866Z,1012.30
2019-02-11T08:52:57.863Z,1012.38
2019-02-11T08:53:57.832Z,1012.37
2019-02-11T08:54:57.851Z,1012.37
2019-02-11T08:55:57.804Z,1012.46
2019-02-11T08:56:57.787Z,1012.36
2019-02-11T08:57:57.799Z,1012.44
2019-02-11T08:58:57.792Z,1012.45
2019-02-11T08:59:57.755Z,1012.46
2019-02-11T09:00:57.778Z,1012.56
2019-02-11T09:01:57.735Z,1012.45
2019-02-11T09:02:57.747Z,1012.53
2019-02-11T09:03:57.713Z,1012.57
2019-02-11T09:04:57.704Z,1012.56
2019-02-11T09:05:57.723Z,1012.55
2019-02-11T09:06:57.683Z,1012.57
2019-02-11T09:07:57.667Z,1012.59
2019-02-11T09:08:57.658Z,1012.59
2019-02-11T09:09:57.645Z,1012.63
2019-02-11T09:10:57.640Z,1012.63
2019-02-11T09:11:57.649Z,1012.67
2019-02-11T09:12:57.631Z,1012.73
2019-02-11T09:13:57.617Z,1012.71
2019-02-11T09:14:57.592Z,1012.80
2019-02-11T09:15:57.697Z,1012.66
2019-02-11T09:16:57.568Z,1012.79
2019-02-11T09:17:57.578Z,1012.74
2019-02-11T09:18:57.640Z,1012.86
2019-02-11T09:19:57.536Z,1012.76
2019-02-11T09:20:57.531Z,1012.81
2019-02-11T09:21:57.577Z,1012.95
2019-02-11T09:22:57.520Z,1012.91
2019-02-11T09:23:57.487Z,1012.93
2019-02-11T09:24:57.506Z,1012.97
2019-02-11T09:25:57.473Z,1012.92
2019-02-11T09:26:57.497Z,1012.97
2019-02-11T09:27:57.460Z,1012.96
2019-02-11T09:28:57.434Z,1012.99
2019-02-11T09:29:57.432Z,1013.06
2019-02-11T09:30:57.425Z,1013.05
2019-02-11T09:31:57.410Z,1013.08
2019-02-11T09:32:57.424Z,1013.16
2019-02-11T09:33:57.383Z,1013.17
2019-02-11T09:34:57.428Z,1013.24
2019-02-11T09:35:57.363Z,1013.21
2019-02-11T09:36:57.380Z,1013.30
2019-02-11T09:37:57.364Z,1013.22
2019-02-11T09:38:57.354Z,1013.23
2019-02-11T09:39:57.316Z,1013.26
2019-02-11T09:40:57.296Z,1013.34
2019-02-11T09:41:57.298Z,1013.38
2019-02-11T09:42:58.227Z,1013.28
2019-02-11T09:43:57.281Z,1013.37
2019-02-11T09:44:57.259Z,1013.49
2019-02-11T09:46:03.714Z,1013.34
2019-02-11T09:46:58.234Z,1013.48
2019-02-11T09:47:57.248Z,1013.49
2019-02-11T09:48:57.220Z,1013.48
2019-02-11T09:49:57.206Z,1013.49
2019-02-11T09:50:57.206Z,1013.50
2019-02-11T09:51:57.197Z,1013.57
2019-02-11T09:52:57.177Z,1013.45
2019-02-11T09:53:57.183Z,1013.49
2019-02-11T09:54:57.166Z,1013.57
2019-02-11T09:55:57.135Z,1013.53
2019-02-11T09:56:57.130Z,1013.53
2019-02-11T09:57:57.119Z,1013.49
2019-02-11T09:58:57.735Z,1013.57
2019-02-11T09:59:57.115Z,1013.51
2019-02-11T10:00:57.090Z,1013.59
2019-02-11T10:01:57.086Z,1013.56
2019-02-11T10:02:57.065Z,1013.61
2019-02-11T10:03:57.043Z,1013.62
2019-02-11T10:04:57.043Z,1013.61
2019-02-11T10:05:57.065Z,1013.66
2019-02-11T10:06:57.020Z,1013.65
2019-02-11T10:07:57.007Z,1013.69
2019-02-11T10:08:57.001Z,1013.71
2019-02-11T10:09:56.994Z,1013.73
2019-02-11T10:10:56.975Z,1013.74
2019-02-11T10:11:56.987Z,1013.73
2019-02-11T10:12:56.959Z,1013.81
2019-02-11T10:13:56.948Z,1013.75
2019-02-11T10:14:56.964Z,1013.79
2019-02-11T10:15:56.919Z,1013.71
2019-02-11T10:16:56.904Z,1013.80
2019-02-11T10:17:57.003Z,1013.87
2019-02-11T10:18:56.882Z,1013.86
2019-02-11T10:19:56.875Z,1013.86
2019-02-11T10:20:56.861Z,1013.86
2019-02-11T10:21:56.850Z,1013.85
2019-02-11T10:22:56.842Z,1013.84
2019-02-11T10:23:56.857Z,1013.91
2019-02-11T10:24:56.815Z,1013.87
2019-02-11T10:25:56.803Z,1013.83
2019-02-11T10:26:56.794Z,1013.92
2019-02-11T10:27:56.787Z,1013.97
2019-02-11T10:28:56.790Z,1014.01
2019-02-11T10:29:56.795Z,1013.99
2019-02-11T10:30:56.745Z,1013.98
2019-02-11T10:31:56.729Z,1014.03
2019-02-11T10:32:56.730Z,1014.10
2019-02-11T10:33:56.714Z,1014.20
2019-02-11T10:34:56.719Z,1014.14
2019-02-11T10:35:56.695Z,1014.16
2019-02-11T10:36:56.696Z,1014.17
2019-02-11T10:37:56.674Z,1014.18
2019-02-11T10:38:57.737Z,1014.20
2019-02-11T10:39:56.678Z,1014.15
2019-02-11T10:40:56.655Z,1014.24
2019-02-11T10:41:56.652Z,1014.16
2019-02-11T10:42:56.630Z,1014.18
2019-02-11T10:43:56.623Z,1014.16
2019-02-11T10:44:56.587Z,1014.16
2019-02-11T10:45:56.608Z,1014.25
2019-02-11T10:46:56.572Z,1014.21
2019-02-11T10:47:56.569Z,1014.26
2019-02-11T10:48:56.595Z,1014.29
2019-02-11T10:49:56.550Z,1014.31
2019-02-11T10:50:56.551Z,1014.34
2019-02-11T10:51:56.507Z,1014.41
2019-02-11T10:52:56.495Z,1014.25
2019-02-11T10:53:56.487Z,1014.46
2019-02-11T10:54:56.505Z,1014.38
2019-02-11T10:55:56.472Z,1014.46
2019-02-11T10:56:56.448Z,1014.42
2019-02-11T10:57:56.573Z,1014.39
2019-02-11T10:58:56.435Z,1014.48
2019-02-11T10:59:56.439Z,1014.40
2019-02-11T11:00:56.501Z,1014.41
2019-02-11T11:01:56.393Z,1014.48
2019-02-11T11:02:56.394Z,1014.52
2019-02-11T11:03:56.436Z,1014.56
2019-02-11T11:04:56.371Z,1014.63
2019-02-11T11:05:56.370Z,1014.54
2019-02-11T11:06:56.337Z,1014.59
2019-02-11T11:07:56.332Z,1014.61
2019-02-11T11:08:56.318Z,1014.66
2019-02-11T11:09:56.364Z,1014.72
2019-02-11T11:10:56.322Z,1014.73
2019-02-11T11:11:56.281Z,1014.63
2019-02-11T11:12:56.269Z,1014.73
2019-02-11T11:13:56.381Z,1014.77
2019-02-11T11:14:56.247Z,1014.74
2019-02-11T11:15:56.307Z,1014.69
2019-02-11T11:16:56.269Z,1014.74
2019-02-11T11:17:56.216Z,1014.78
2019-02-11T11:18:56.205Z,1014.80
2019-02-11T11:19:56.193Z,1014.88
2019-02-11T11:20:56.184Z,1014.84
2019-02-11T11:21:56.196Z,1014.97
2019-02-11T11:22:56.160Z,1014.83
2019-02-11T11:23:56.147Z,1014.91
2019-02-11T11:24:56.138Z,1014.96
2019-02-11T11:25:56.152Z,1014.97
2019-02-11T11:26:56.112Z,1014.99
2019-02-11T11:27:56.108Z,1015.01
2019-02-11T11:28:56.100Z,1015.07
2019-02-11T11:29:56.080Z,1015.07
2019-02-11T11:30:56.073Z,1015.07
2019-02-11T11:31:56.087Z,1015.14
2019-02-11T11:32:56.066Z,1015.10
2019-02-11T11:33:56.044Z,1015.12
2019-02-11T11:34:56.137Z,1015.21
2019-02-11T11:35:56.048Z,1015.25
2019-02-11T11:36:56.001Z,1015.29
2019-02-11T11:37:56.065Z,1015.25
2019-02-11T11:38:55.978Z,1015.29
2019-02-11T11:39:55.966Z,1015.24
2019-02-11T11:40:55.966Z,1015.36
2019-02-11T11:41:55.949Z,1015.32
2019-02-11T11:42:55.946Z,1015.35
2019-02-11T11:43:55.958Z,1015.37
2019-02-11T11:44:55.921Z,1015.34
2019-02-11T11:45:55.896Z,1015.42
2019-02-11T11:46:55.902Z,1015.41
2019-02-11T11:47:55.888Z,1015.53
2019-02-11T11:48:55.888Z,1015.42
2019-02-11T11:49:55.877Z,1015.46
2019-02-11T11:50:55.837Z,1015.54
2019-02-11T11:51:55.844Z,1015.49
2019-02-11T11:52:55.846Z,1015.49
2019-02-11T11:53:55.975Z,1015.49
2019-02-11T11:54:55.845Z,1015.54
2019-02-11T11:55:55.786Z,1015.45
2019-02-11T11:56:58.992Z,1015.53
2019-02-11T11:57:55.768Z,1015.52
2019-02-11T11:58:55.763Z,1015.58
2019-02-11T11:59:55.773Z,1015.58
2019-02-11T12:00:55.905Z,1015.63
2019-02-11T12:01:55.723Z,1015.62
2019-02-11T12:03:02.653Z,1015.64
2019-02-11T12:03:56.702Z,1015.63
2019-02-11T12:04:55.854Z,1015.72